sensor_id;sensor_type;location;lat;lon;timestamp;P1;durP1;ratioP1;P2;durP2;ratioP2
36205;SDS011;22242;48.796;9.930;2023-02-10T00:01:29;65.93;;;24.30;;
36205;SDS011;22242;48.796;9.930;2023-02-10T00:03:56;53.03;;;19.73;;
36205;SDS011;22242;48.796;9.930;2023-02-10T00:06:26;53.42;;;20.13;;
36205;SDS011;22242;48.796;9.930;2023-02-10T00:08:55;51.80;;;20.25;;
36205;SDS011;22242;48.796;9.930;2023-02-10T00:11:24;55.50;;;22.35;;
36205;SDS011;22242;48.796;9.930;2023-02-10T00:14:06;57.63;;;22.15;;
36205;SDS011;22242;48.796;9.930;2023-02-10T00:16:34;56.90;;;22.48;;
36205;SDS011;22242;48.796;9.930;2023-02-10T00:19:01;60.75;;;23.70;;
36205;SDS011;22242;48.796;9.930;2023-02-10T00:21:29;60.75;;;23.08;;
36205;SDS011;22242;48.796;9.930;2023-02-10T00:23:56;54.65;;;22.40;;
36205;SDS011;22242;48.796;9.930;2023-02-10T00:26:23;50.47;;;21.63;;
36205;SDS011;22242;48.796;9.930;2023-02-10T00:28:51;56.42;;;22.45;;
36205;SDS011;22242;48.796;9.930;2023-02-10T00:31:18;53.33;;;20.17;;
36205;SDS011;22242;48.796;9.930;2023-02-10T00:33:46;54.75;;;21.48;;
36205;SDS011;22242;48.796;9.930;2023-02-10T00:36:14;44.90;;;18.83;;
36205;SDS011;22242;48.796;9.930;2023-02-10T00:38:44;48.63;;;19.75;;
36205;SDS011;22242;48.796;9.930;2023-02-10T00:41:12;44.70;;;18.65;;
36205;SDS011;22242;48.796;9.930;2023-02-10T00:43:40;48.15;;;19.42;;
36205;SDS011;22242;48.796;9.930;2023-02-10T00:46:10;50.33;;;18.80;;
36205;SDS011;22242;48.796;9.930;2023-02-10T00:48:37;47.03;;;19.17;;
36205;SDS011;22242;48.796;9.930;2023-02-10T00:51:05;43.38;;;17.80;;
36205;SDS011;22242;48.796;9.930;2023-02-10T00:53:32;43.60;;;18.85;;
36205;SDS011;22242;48.796;9.930;2023-02-10T00:56:01;46.15;;;18.60;;
36205;SDS011;22242;48.796;9.930;2023-02-10T00:58:29;49.97;;;19.30;;
36205;SDS011;22242;48.796;9.930;2023-02-10T01:00:56;48.58;;;17.63;;
36205;SDS011;22242;48.796;9.930;2023-02-10T01:03:23;52.17;;;18.67;;
36205;SDS011;22242;48.796;9.930;2023-02-10T01:05:50;48.92;;;17.67;;
36205;SDS011;22242;48.796;9.930;2023-02-10T01:08:17;42.33;;;18.13;;
36205;SDS011;22242;48.796;9.930;2023-02-10T01:10:45;43.08;;;18.08;;
36205;SDS011;22242;48.796;9.930;2023-02-10T01:13:14;55.42;;;21.65;;
36205;SDS011;22242;48.796;9.930;2023-02-10T01:15:41;50.97;;;19.65;;
36205;SDS011;22242;48.796;9.930;2023-02-10T01:18:09;52.85;;;22.50;;
36205;SDS011;22242;48.796;9.930;2023-02-10T01:20:37;56.78;;;22.67;;
36205;SDS011;22242;48.796;9.930;2023-02-10T01:23:06;53.38;;;22.38;;
36205;SDS011;22242;48.796;9.930;2023-02-10T01:25:33;62.72;;;22.73;;
36205;SDS011;22242;48.796;9.930;2023-02-10T01:28:01;57.90;;;22.52;;
36205;SDS011;22242;48.796;9.930;2023-02-10T01:30:29;48.80;;;20.67;;
36205;SDS011;22242;48.796;9.930;2023-02-10T01:32:58;50.83;;;20.38;;
36205;SDS011;22242;48.796;9.930;2023-02-10T01:35:25;48.17;;;20.17;;
36205;SDS011;22242;48.796;9.930;2023-02-10T01:37:52;46.70;;;19.17;;
36205;SDS011;22242;48.796;9.930;2023-02-10T01:40:20;49.58;;;19.63;;
36205;SDS011;22242;48.796;9.930;2023-02-10T01:42:49;45.83;;;17.75;;
36205;SDS011;22242;48.796;9.930;2023-02-10T01:45:18;38.33;;;17.35;;
36205;SDS011;22242;48.796;9.930;2023-02-10T01:47:51;45.42;;;17.92;;
36205;SDS011;22242;48.796;9.930;2023-02-10T01:52:49;48.72;;;18.98;;
36205;SDS011;22242;48.796;9.930;2023-02-10T01:55:17;55.85;;;21.35;;
36205;SDS011;22242;48.796;9.930;2023-02-10T01:57:47;50.67;;;18.60;;
36205;SDS011;22242;48.796;9.930;2023-02-10T02:00:20;56.05;;;20.05;;
36205;SDS011;22242;48.796;9.930;2023-02-10T02:02:47;48.00;;;19.73;;
36205;SDS011;22242;48.796;9.930;2023-02-10T02:05:20;47.78;;;18.02;;
36205;SDS011;22242;48.796;9.930;2023-02-10T02:07:59;45.80;;;18.38;;
36205;SDS011;22242;48.796;9.930;2023-02-10T02:10:34;43.13;;;17.98;;
36205;SDS011;22242;48.796;9.930;2023-02-10T02:13:18;41.95;;;17.70;;
36205;SDS011;22242;48.796;9.930;2023-02-10T02:15:55;41.38;;;17.95;;
36205;SDS011;22242;48.796;9.930;2023-02-10T02:18:30;40.75;;;17.65;;
36205;SDS011;22242;48.796;9.930;2023-02-10T02:24:36;51.70;;;18.85;;
36205;SDS011;22242;48.796;9.930;2023-02-10T02:27:28;46.15;;;17.42;;
36205;SDS011;22242;48.796;9.930;2023-02-10T02:30:26;42.92;;;17.35;;
36205;SDS011;22242;48.796;9.930;2023-02-10T02:33:22;48.92;;;18.58;;
36205;SDS011;22242;48.796;9.930;2023-02-10T02:35:58;44.22;;;18.70;;
36205;SDS011;22242;48.796;9.930;2023-02-10T02:38:30;56.97;;;19.55;;
36205;SDS011;22242;48.796;9.930;2023-02-10T02:41:03;51.13;;;21.10;;
36205;SDS011;22242;48.796;9.930;2023-02-10T02:43:30;59.95;;;23.42;;
36205;SDS011;22242;48.796;9.930;2023-02-10T02:45:58;57.63;;;22.60;;
36205;SDS011;22242;48.796;9.930;2023-02-10T02:48:36;60.15;;;22.45;;
36205;SDS011;22242;48.796;9.930;2023-02-10T02:51:16;62.42;;;24.55;;
36205;SDS011;22242;48.796;9.930;2023-02-10T02:53:53;54.38;;;22.70;;
36205;SDS011;22242;48.796;9.930;2023-02-10T02:56:29;54.63;;;22.15;;
36205;SDS011;22242;48.796;9.930;2023-02-10T02:59:03;56.17;;;22.92;;
36205;SDS011;22242;48.796;9.930;2023-02-10T03:01:35;59.72;;;23.73;;
36205;SDS011;22242;48.796;9.930;2023-02-10T03:04:09;55.78;;;23.30;;
36205;SDS011;22242;48.796;9.930;2023-02-10T03:06:39;55.67;;;23.38;;
36205;SDS011;22242;48.796;9.930;2023-02-10T03:09:07;55.22;;;23.30;;
36205;SDS011;22242;48.796;9.930;2023-02-10T03:11:34;56.60;;;23.42;;
36205;SDS011;22242;48.796;9.930;2023-02-10T03:14:01;55.88;;;23.45;;
36205;SDS011;22242;48.796;9.930;2023-02-10T03:16:28;48.33;;;21.45;;
36205;SDS011;22242;48.796;9.930;2023-02-10T03:18:55;58.25;;;23.48;;
36205;SDS011;22242;48.796;9.930;2023-02-10T03:21:23;50.83;;;21.70;;
36205;SDS011;22242;48.796;9.930;2023-02-10T03:23:51;55.75;;;22.00;;
36205;SDS011;22242;48.796;9.930;2023-02-10T03:26:18;57.38;;;22.45;;
36205;SDS011;22242;48.796;9.930;2023-02-10T03:28:45;54.50;;;22.40;;
36205;SDS011;22242;48.796;9.930;2023-02-10T03:31:13;55.90;;;22.90;;
36205;SDS011;22242;48.796;9.930;2023-02-10T03:33:39;53.53;;;22.20;;
36205;SDS011;22242;48.796;9.930;2023-02-10T03:36:07;52.50;;;20.77;;
36205;SDS011;22242;48.796;9.930;2023-02-10T03:38:35;47.97;;;20.63;;
36205;SDS011;22242;48.796;9.930;2023-02-10T03:41:03;56.58;;;21.90;;
36205;SDS011;22242;48.796;9.930;2023-02-10T03:43:30;49.42;;;20.83;;
36205;SDS011;22242;48.796;9.930;2023-02-10T03:45:59;56.17;;;20.23;;
36205;SDS011;22242;48.796;9.930;2023-02-10T03:48:27;52.28;;;21.10;;
36205;SDS011;22242;48.796;9.930;2023-02-10T03:50:56;55.05;;;22.02;;
36205;SDS011;22242;48.796;9.930;2023-02-10T03:53:24;52.08;;;20.88;;
36205;SDS011;22242;48.796;9.930;2023-02-10T03:55:53;48.28;;;20.63;;
36205;SDS011;22242;48.796;9.930;2023-02-10T03:58:20;53.65;;;21.02;;
36205;SDS011;22242;48.796;9.930;2023-02-10T04:00:47;58.00;;;22.90;;
36205;SDS011;22242;48.796;9.930;2023-02-10T04:03:15;56.67;;;23.13;;
36205;SDS011;22242;48.796;9.930;2023-02-10T04:05:42;55.53;;;21.63;;
36205;SDS011;22242;48.796;9.930;2023-02-10T04:08:09;62.45;;;22.88;;
36205;SDS011;22242;48.796;9.930;2023-02-10T04:10:36;56.13;;;22.17;;
36205;SDS011;22242;48.796;9.930;2023-02-10T04:13:05;66.60;;;24.23;;
36205;SDS011;22242;48.796;9.930;2023-02-10T04:15:32;54.28;;;22.00;;
36205;SDS011;22242;48.796;9.930;2023-02-10T04:17:59;55.40;;;21.88;;
36205;SDS011;22242;48.796;9.930;2023-02-10T04:20:26;55.22;;;22.83;;
36205;SDS011;22242;48.796;9.930;2023-02-10T04:22:53;55.80;;;21.25;;
36205;SDS011;22242;48.796;9.930;2023-02-10T04:25:20;53.65;;;22.05;;
36205;SDS011;22242;48.796;9.930;2023-02-10T04:27:48;56.08;;;22.80;;
36205;SDS011;22242;48.796;9.930;2023-02-10T04:30:16;52.22;;;22.38;;
36205;SDS011;22242;48.796;9.930;2023-02-10T04:32:44;52.53;;;21.45;;
36205;SDS011;22242;48.796;9.930;2023-02-10T04:35:11;57.38;;;23.30;;
36205;SDS011;22242;48.796;9.930;2023-02-10T04:37:38;63.53;;;23.02;;
36205;SDS011;22242;48.796;9.930;2023-02-10T04:40:05;62.25;;;24.15;;
36205;SDS011;22242;48.796;9.930;2023-02-10T04:42:33;65.93;;;25.85;;
36205;SDS011;22242;48.796;9.930;2023-02-10T04:45:00;61.45;;;23.92;;
36205;SDS011;22242;48.796;9.930;2023-02-10T04:47:28;66.90;;;26.15;;
36205;SDS011;22242;48.796;9.930;2023-02-10T04:49:55;59.45;;;24.83;;
36205;SDS011;22242;48.796;9.930;2023-02-10T04:52:22;61.25;;;24.83;;
36205;SDS011;22242;48.796;9.930;2023-02-10T04:54:49;62.40;;;25.48;;
36205;SDS011;22242;48.796;9.930;2023-02-10T04:57:17;58.25;;;24.92;;
36205;SDS011;22242;48.796;9.930;2023-02-10T04:59:44;59.22;;;24.42;;
36205;SDS011;22242;48.796;9.930;2023-02-10T05:02:11;58.03;;;25.27;;
36205;SDS011;22242;48.796;9.930;2023-02-10T05:04:39;63.17;;;25.65;;
36205;SDS011;22242;48.796;9.930;2023-02-10T05:07:06;69.55;;;27.15;;
36205;SDS011;22242;48.796;9.930;2023-02-10T05:09:33;59.67;;;25.20;;
36205;SDS011;22242;48.796;9.930;2023-02-10T05:12:00;59.25;;;24.27;;
36205;SDS011;22242;48.796;9.930;2023-02-10T05:14:27;60.03;;;25.08;;
36205;SDS011;22242;48.796;9.930;2023-02-10T05:16:55;61.88;;;24.67;;
36205;SDS011;22242;48.796;9.930;2023-02-10T05:19:22;62.28;;;24.73;;
36205;SDS011;22242;48.796;9.930;2023-02-10T05:21:50;64.97;;;26.75;;
36205;SDS011;22242;48.796;9.930;2023-02-10T05:24:17;89.18;;;34.25;;
36205;SDS011;22242;48.796;9.930;2023-02-10T05:26:44;84.00;;;30.70;;
36205;SDS011;22242;48.796;9.930;2023-02-10T05:29:11;85.03;;;32.58;;
36205;SDS011;22242;48.796;9.930;2023-02-10T05:31:38;165.55;;;50.70;;
36205;SDS011;22242;48.796;9.930;2023-02-10T05:34:05;109.15;;;39.88;;
36205;SDS011;22242;48.796;9.930;2023-02-10T05:36:33;66.13;;;26.27;;
36205;SDS011;22242;48.796;9.930;2023-02-10T05:39:01;68.05;;;26.30;;
36205;SDS011;22242;48.796;9.930;2023-02-10T05:41:46;69.32;;;28.15;;
36205;SDS011;22242;48.796;9.930;2023-02-10T05:44:13;70.78;;;26.90;;
36205;SDS011;22242;48.796;9.930;2023-02-10T05:46:40;66.75;;;27.95;;
36205;SDS011;22242;48.796;9.930;2023-02-10T05:49:07;86.55;;;29.45;;
36205;SDS011;22242;48.796;9.930;2023-02-10T05:51:34;70.20;;;25.55;;
36205;SDS011;22242;48.796;9.930;2023-02-10T05:54:02;64.93;;;26.23;;
36205;SDS011;22242;48.796;9.930;2023-02-10T05:56:30;63.42;;;26.38;;
36205;SDS011;22242;48.796;9.930;2023-02-10T05:58:57;62.28;;;24.67;;
36205;SDS011;22242;48.796;9.930;2023-02-10T06:01:24;65.47;;;25.35;;
36205;SDS011;22242;48.796;9.930;2023-02-10T06:03:51;64.10;;;25.10;;
36205;SDS011;22242;48.796;9.930;2023-02-10T06:06:18;67.93;;;25.65;;
36205;SDS011;22242;48.796;9.930;2023-02-10T06:08:45;63.42;;;25.67;;
36205;SDS011;22242;48.796;9.930;2023-02-10T06:11:13;54.17;;;24.80;;
36205;SDS011;22242;48.796;9.930;2023-02-10T06:13:41;63.63;;;24.27;;
36205;SDS011;22242;48.796;9.930;2023-02-10T06:16:08;65.43;;;26.23;;
36205;SDS011;22242;48.796;9.930;2023-02-10T06:18:36;62.72;;;24.40;;
36205;SDS011;22242;48.796;9.930;2023-02-10T06:21:04;64.88;;;25.95;;
36205;SDS011;22242;48.796;9.930;2023-02-10T06:23:31;64.65;;;26.30;;
36205;SDS011;22242;48.796;9.930;2023-02-10T06:25:58;64.88;;;25.48;;
36205;SDS011;22242;48.796;9.930;2023-02-10T06:28:27;65.05;;;27.13;;
36205;SDS011;22242;48.796;9.930;2023-02-10T06:30:54;68.95;;;26.88;;
36205;SDS011;22242;48.796;9.930;2023-02-10T06:33:21;60.55;;;25.38;;
36205;SDS011;22242;48.796;9.930;2023-02-10T06:35:50;70.15;;;25.73;;
36205;SDS011;22242;48.796;9.930;2023-02-10T06:38:17;70.90;;;27.67;;
36205;SDS011;22242;48.796;9.930;2023-02-10T06:40:44;64.97;;;25.73;;
36205;SDS011;22242;48.796;9.930;2023-02-10T06:43:11;61.38;;;25.90;;
36205;SDS011;22242;48.796;9.930;2023-02-10T06:45:40;63.13;;;25.83;;
36205;SDS011;22242;48.796;9.930;2023-02-10T06:48:07;62.00;;;26.63;;
36205;SDS011;22242;48.796;9.930;2023-02-10T06:50:34;61.83;;;26.23;;
36205;SDS011;22242;48.796;9.930;2023-02-10T06:53:03;59.45;;;25.35;;
36205;SDS011;22242;48.796;9.930;2023-02-10T06:55:30;66.90;;;25.45;;
36205;SDS011;22242;48.796;9.930;2023-02-10T06:57:57;64.75;;;27.25;;
36205;SDS011;22242;48.796;9.930;2023-02-10T07:00:25;66.93;;;27.38;;
36205;SDS011;22242;48.796;9.930;2023-02-10T07:02:54;68.95;;;27.35;;
36205;SDS011;22242;48.796;9.930;2023-02-10T07:05:21;65.40;;;28.02;;
36205;SDS011;22242;48.796;9.930;2023-02-10T07:07:48;67.80;;;27.02;;
36205;SDS011;22242;48.796;9.930;2023-02-10T07:10:19;72.00;;;28.73;;
36205;SDS011;22242;48.796;9.930;2023-02-10T07:12:46;62.58;;;27.63;;
36205;SDS011;22242;48.796;9.930;2023-02-10T07:15:13;63.40;;;27.55;;
36205;SDS011;22242;48.796;9.930;2023-02-10T07:17:42;73.20;;;27.40;;
36205;SDS011;22242;48.796;9.930;2023-02-10T07:20:11;62.50;;;26.73;;
36205;SDS011;22242;48.796;9.930;2023-02-10T07:22:38;65.10;;;26.95;;
36205;SDS011;22242;48.796;9.930;2023-02-10T07:25:06;62.40;;;27.17;;
36205;SDS011;22242;48.796;9.930;2023-02-10T07:27:33;70.72;;;28.45;;
36205;SDS011;22242;48.796;9.930;2023-02-10T07:30:00;70.72;;;27.73;;
36205;SDS011;22242;48.796;9.930;2023-02-10T07:32:27;70.05;;;28.70;;
36205;SDS011;22242;48.796;9.930;2023-02-10T07:34:54;64.20;;;27.77;;
36205;SDS011;22242;48.796;9.930;2023-02-10T07:37:23;68.80;;;29.63;;
36205;SDS011;22242;48.796;9.930;2023-02-10T07:39:51;71.25;;;28.52;;
36205;SDS011;22242;48.796;9.930;2023-02-10T07:42:19;68.68;;;29.50;;
36205;SDS011;22242;48.796;9.930;2023-02-10T07:45:09;70.68;;;30.05;;
36205;SDS011;22242;48.796;9.930;2023-02-10T07:47:36;77.45;;;31.63;;
36205;SDS011;22242;48.796;9.930;2023-02-10T07:50:03;71.10;;;30.88;;
36205;SDS011;22242;48.796;9.930;2023-02-10T07:52:32;74.68;;;30.23;;
36205;SDS011;22242;48.796;9.930;2023-02-10T07:54:59;75.93;;;31.15;;
36205;SDS011;22242;48.796;9.930;2023-02-10T07:57:28;77.65;;;34.05;;
36205;SDS011;22242;48.796;9.930;2023-02-10T07:59:55;78.47;;;32.63;;
36205;SDS011;22242;48.796;9.930;2023-02-10T08:02:22;82.57;;;33.05;;
36205;SDS011;22242;48.796;9.930;2023-02-10T08:04:49;67.47;;;29.77;;
36205;SDS011;22242;48.796;9.930;2023-02-10T08:07:17;66.47;;;27.95;;
36205;SDS011;22242;48.796;9.930;2023-02-10T08:09:46;59.33;;;29.65;;
36205;SDS011;22242;48.796;9.930;2023-02-10T08:12:13;62.20;;;30.75;;
36205;SDS011;22242;48.796;9.930;2023-02-10T08:14:40;56.47;;;29.15;;
36205;SDS011;22242;48.796;9.930;2023-02-10T08:17:07;49.72;;;27.15;;
36205;SDS011;22242;48.796;9.930;2023-02-10T08:19:34;47.75;;;26.17;;
36205;SDS011;22242;48.796;9.930;2023-02-10T08:22:01;48.60;;;28.48;;
36205;SDS011;22242;48.796;9.930;2023-02-10T08:24:29;44.30;;;26.85;;
36205;SDS011;22242;48.796;9.930;2023-02-10T08:26:58;45.13;;;27.50;;
36205;SDS011;22242;48.796;9.930;2023-02-10T08:29:25;44.45;;;28.13;;
36205;SDS011;22242;48.796;9.930;2023-02-10T08:31:52;50.80;;;30.30;;
36205;SDS011;22242;48.796;9.930;2023-02-10T08:34:19;57.75;;;31.80;;
36205;SDS011;22242;48.796;9.930;2023-02-10T08:36:47;57.33;;;31.23;;
36205;SDS011;22242;48.796;9.930;2023-02-10T08:39:14;50.78;;;30.45;;
36205;SDS011;22242;48.796;9.930;2023-02-10T08:41:42;46.80;;;28.25;;
36205;SDS011;22242;48.796;9.930;2023-02-10T08:44:10;45.60;;;28.05;;
36205;SDS011;22242;48.796;9.930;2023-02-10T08:46:39;44.58;;;27.23;;
36205;SDS011;22242;48.796;9.930;2023-02-10T08:49:07;39.67;;;26.30;;
36205;SDS011;22242;48.796;9.930;2023-02-10T08:51:34;43.65;;;28.83;;
36205;SDS011;22242;48.796;9.930;2023-02-10T08:54:04;36.45;;;25.52;;
36205;SDS011;22242;48.796;9.930;2023-02-10T08:56:32;41.05;;;27.63;;
36205;SDS011;22242;48.796;9.930;2023-02-10T08:58:59;40.08;;;26.92;;
36205;SDS011;22242;48.796;9.930;2023-02-10T09:01:27;40.05;;;25.55;;
36205;SDS011;22242;48.796;9.930;2023-02-10T09:03:55;40.70;;;27.33;;
36205;SDS011;22242;48.796;9.930;2023-02-10T09:06:23;36.78;;;25.00;;
36205;SDS011;22242;48.796;9.930;2023-02-10T09:08:52;36.33;;;25.55;;
36205;SDS011;22242;48.796;9.930;2023-02-10T09:11:20;39.45;;;26.20;;
36205;SDS011;22242;48.796;9.930;2023-02-10T09:13:48;37.40;;;25.98;;
36205;SDS011;22242;48.796;9.930;2023-02-10T09:16:16;41.72;;;28.63;;
36205;SDS011;22242;48.796;9.930;2023-02-10T09:18:44;46.47;;;30.85;;
36205;SDS011;22242;48.796;9.930;2023-02-10T09:21:12;57.63;;;35.90;;
36205;SDS011;22242;48.796;9.930;2023-02-10T09:23:39;47.45;;;32.88;;
36205;SDS011;22242;48.796;9.930;2023-02-10T09:26:06;35.83;;;25.98;;
36205;SDS011;22242;48.796;9.930;2023-02-10T09:28:33;39.30;;;26.08;;
36205;SDS011;22242;48.796;9.930;2023-02-10T09:31:03;32.83;;;25.13;;
36205;SDS011;22242;48.796;9.930;2023-02-10T09:33:30;36.08;;;27.23;;
36205;SDS011;22242;48.796;9.930;2023-02-10T09:36:01;34.47;;;25.48;;
36205;SDS011;22242;48.796;9.930;2023-02-10T09:38:29;34.95;;;26.67;;
36205;SDS011;22242;48.796;9.930;2023-02-10T09:40:58;36.00;;;26.23;;
36205;SDS011;22242;48.796;9.930;2023-02-10T09:43:43;34.22;;;24.80;;
36205;SDS011;22242;48.796;9.930;2023-02-10T09:46:27;35.63;;;26.67;;
36205;SDS011;22242;48.796;9.930;2023-02-10T09:49:06;38.88;;;26.40;;
36205;SDS011;22242;48.796;9.930;2023-02-10T09:51:47;36.17;;;26.90;;
36205;SDS011;22242;48.796;9.930;2023-02-10T09:54:18;38.35;;;26.80;;
36205;SDS011;22242;48.796;9.930;2023-02-10T09:56:46;44.00;;;30.80;;
36205;SDS011;22242;48.796;9.930;2023-02-10T09:59:14;100.10;;;70.00;;
36205;SDS011;22242;48.796;9.930;2023-02-10T10:01:48;57.53;;;41.63;;
36205;SDS011;22242;48.796;9.930;2023-02-10T10:04:19;42.50;;;28.20;;
36205;SDS011;22242;48.796;9.930;2023-02-10T10:06:51;38.10;;;27.60;;
36205;SDS011;22242;48.796;9.930;2023-02-10T10:09:25;36.55;;;27.60;;
36205;SDS011;22242;48.796;9.930;2023-02-10T10:11:59;37.05;;;26.58;;
36205;SDS011;22242;48.796;9.930;2023-02-10T10:14:27;34.10;;;24.80;;
36205;SDS011;22242;48.796;9.930;2023-02-10T10:17:02;30.42;;;23.60;;
36205;SDS011;22242;48.796;9.930;2023-02-10T10:19:38;31.63;;;22.90;;
36205;SDS011;22242;48.796;9.930;2023-02-10T10:22:21;32.63;;;22.98;;
36205;SDS011;22242;48.796;9.930;2023-02-10T10:25:05;35.43;;;23.07;;
36205;SDS011;22242;48.796;9.930;2023-02-10T10:27:45;28.10;;;20.23;;
36205;SDS011;22242;48.796;9.930;2023-02-10T10:30:20;29.58;;;21.65;;
36205;SDS011;22242;48.796;9.930;2023-02-10T10:32:57;30.70;;;21.15;;
36205;SDS011;22242;48.796;9.930;2023-02-10T10:35:28;27.35;;;20.60;;
36205;SDS011;22242;48.796;9.930;2023-02-10T10:38:08;29.70;;;20.95;;
36205;SDS011;22242;48.796;9.930;2023-02-10T10:40:39;28.20;;;19.63;;
36205;SDS011;22242;48.796;9.930;2023-02-10T10:43:11;30.85;;;20.35;;
36205;SDS011;22242;48.796;9.930;2023-02-10T10:45:44;28.65;;;20.35;;
36205;SDS011;22242;48.796;9.930;2023-02-10T10:48:15;32.03;;;19.90;;
36205;SDS011;22242;48.796;9.930;2023-02-10T10:50:49;28.73;;;20.42;;
36205;SDS011;22242;48.796;9.930;2023-02-10T10:53:18;27.25;;;20.10;;
36205;SDS011;22242;48.796;9.930;2023-02-10T10:55:56;30.45;;;20.25;;
36205;SDS011;22242;48.796;9.930;2023-02-10T10:58:25;28.13;;;19.77;;
36205;SDS011;22242;48.796;9.930;2023-02-10T11:00:56;29.30;;;20.10;;
36205;SDS011;22242;48.796;9.930;2023-02-10T11:03:24;30.63;;;21.17;;
36205;SDS011;22242;48.796;9.930;2023-02-10T11:05:59;31.88;;;21.33;;
36205;SDS011;22242;48.796;9.930;2023-02-10T11:08:33;28.63;;;20.25;;
36205;SDS011;22242;48.796;9.930;2023-02-10T11:11:06;30.83;;;20.92;;
36205;SDS011;22242;48.796;9.930;2023-02-10T11:13:35;28.35;;;19.92;;
36205;SDS011;22242;48.796;9.930;2023-02-10T11:16:06;30.65;;;21.17;;
36205;SDS011;22242;48.796;9.930;2023-02-10T11:18:37;32.38;;;22.10;;
36205;SDS011;22242;48.796;9.930;2023-02-10T11:21:05;31.20;;;21.08;;
36205;SDS011;22242;48.796;9.930;2023-02-10T11:23:45;30.95;;;21.00;;
36205;SDS011;22242;48.796;9.930;2023-02-10T11:26:17;28.20;;;20.35;;
36205;SDS011;22242;48.796;9.930;2023-02-10T11:28:46;28.25;;;20.48;;
36205;SDS011;22242;48.796;9.930;2023-02-10T11:31:19;30.40;;;21.15;;
36205;SDS011;22242;48.796;9.930;2023-02-10T11:33:54;29.55;;;20.05;;
36205;SDS011;22242;48.796;9.930;2023-02-10T11:36:28;30.13;;;19.10;;
36205;SDS011;22242;48.796;9.930;2023-02-10T11:39:02;28.42;;;19.08;;
36205;SDS011;22242;48.796;9.930;2023-02-10T11:41:32;26.63;;;18.83;;
36205;SDS011;22242;48.796;9.930;2023-02-10T11:44:00;27.02;;;18.85;;
36205;SDS011;22242;48.796;9.930;2023-02-10T11:46:28;32.55;;;21.75;;
36205;SDS011;22242;48.796;9.930;2023-02-10T11:48:57;28.73;;;18.60;;
36205;SDS011;22242;48.796;9.930;2023-02-10T11:51:26;32.95;;;19.50;;
36205;SDS011;22242;48.796;9.930;2023-02-10T11:53:54;30.92;;;19.15;;
36205;SDS011;22242;48.796;9.930;2023-02-10T11:56:25;30.42;;;18.75;;
36205;SDS011;22242;48.796;9.930;2023-02-10T11:59:19;28.88;;;18.88;;
36205;SDS011;22242;48.796;9.930;2023-02-10T12:01:58;31.58;;;19.88;;
36205;SDS011;22242;48.796;9.930;2023-02-10T12:07:31;35.42;;;20.48;;
36205;SDS011;22242;48.796;9.930;2023-02-10T12:10:09;32.78;;;18.77;;
36205;SDS011;22242;48.796;9.930;2023-02-10T12:12:47;34.78;;;19.90;;
36205;SDS011;22242;48.796;9.930;2023-02-10T12:15:24;32.20;;;19.27;;
36205;SDS011;22242;48.796;9.930;2023-02-10T12:18:04;38.28;;;18.90;;
36205;SDS011;22242;48.796;9.930;2023-02-10T12:20:48;33.55;;;19.60;;
36205;SDS011;22242;48.796;9.930;2023-02-10T12:23:35;32.85;;;18.13;;
36205;SDS011;22242;48.796;9.930;2023-02-10T12:26:24;38.72;;;18.33;;
36205;SDS011;22242;48.796;9.930;2023-02-10T12:29:07;32.90;;;16.75;;
36205;SDS011;22242;48.796;9.930;2023-02-10T12:31:44;41.00;;;21.80;;
36205;SDS011;22242;48.796;9.930;2023-02-10T12:34:33;41.83;;;22.35;;
36205;SDS011;22242;48.796;9.930;2023-02-10T12:37:16;29.33;;;17.42;;
36205;SDS011;22242;48.796;9.930;2023-02-10T12:39:51;34.65;;;19.13;;
36205;SDS011;22242;48.796;9.930;2023-02-10T12:42:42;33.17;;;18.40;;
36205;SDS011;22242;48.796;9.930;2023-02-10T12:45:20;33.13;;;17.85;;
36205;SDS011;22242;48.796;9.930;2023-02-10T12:47:57;29.92;;;17.52;;
36205;SDS011;22242;48.796;9.930;2023-02-10T12:50:40;35.10;;;17.67;;
36205;SDS011;22242;48.796;9.930;2023-02-10T12:53:14;36.55;;;18.05;;
36205;SDS011;22242;48.796;9.930;2023-02-10T12:55:48;31.23;;;17.58;;
36205;SDS011;22242;48.796;9.930;2023-02-10T12:58:21;34.13;;;18.38;;
36205;SDS011;22242;48.796;9.930;2023-02-10T13:00:53;40.17;;;19.90;;
36205;SDS011;22242;48.796;9.930;2023-02-10T13:03:31;34.55;;;17.33;;
36205;SDS011;22242;48.796;9.930;2023-02-10T13:06:02;34.63;;;19.00;;
36205;SDS011;22242;48.796;9.930;2023-02-10T13:08:47;32.42;;;18.45;;
36205;SDS011;22242;48.796;9.930;2023-02-10T13:11:20;34.47;;;18.20;;
36205;SDS011;22242;48.796;9.930;2023-02-10T13:13:53;35.70;;;19.20;;
36205;SDS011;22242;48.796;9.930;2023-02-10T13:16:24;35.78;;;18.88;;
36205;SDS011;22242;48.796;9.930;2023-02-10T13:18:57;32.88;;;18.88;;
36205;SDS011;22242;48.796;9.930;2023-02-10T13:21:34;35.70;;;19.75;;
36205;SDS011;22242;48.796;9.930;2023-02-10T13:24:11;34.72;;;19.27;;
36205;SDS011;22242;48.796;9.930;2023-02-10T13:26:46;37.72;;;19.00;;
36205;SDS011;22242;48.796;9.930;2023-02-10T13:29:23;36.25;;;18.85;;
36205;SDS011;22242;48.796;9.930;2023-02-10T13:32:05;40.22;;;21.05;;
36205;SDS011;22242;48.796;9.930;2023-02-10T13:34:47;34.97;;;18.60;;
36205;SDS011;22242;48.796;9.930;2023-02-10T13:37:18;36.70;;;19.02;;
36205;SDS011;22242;48.796;9.930;2023-02-10T13:39:54;38.58;;;21.27;;
36205;SDS011;22242;48.796;9.930;2023-02-10T13:42:25;34.70;;;18.58;;
36205;SDS011;22242;48.796;9.930;2023-02-10T13:44:58;53.17;;;25.98;;
36205;SDS011;22242;48.796;9.930;2023-02-10T13:47:34;46.30;;;22.27;;
36205;SDS011;22242;48.796;9.930;2023-02-10T13:50:06;37.17;;;19.98;;
36205;SDS011;22242;48.796;9.930;2023-02-10T13:52:48;38.53;;;19.05;;
36205;SDS011;22242;48.796;9.930;2023-02-10T13:55:25;35.42;;;17.70;;
36205;SDS011;22242;48.796;9.930;2023-02-10T14:00:59;34.58;;;18.23;;
36205;SDS011;22242;48.796;9.930;2023-02-10T14:03:29;32.60;;;17.35;;
36205;SDS011;22242;48.796;9.930;2023-02-10T14:05:57;33.65;;;17.58;;
36205;SDS011;22242;48.796;9.930;2023-02-10T14:08:27;33.13;;;17.70;;
36205;SDS011;22242;48.796;9.930;2023-02-10T14:10:57;33.05;;;17.58;;
36205;SDS011;22242;48.796;9.930;2023-02-10T14:13:27;35.90;;;17.98;;
36205;SDS011;22242;48.796;9.930;2023-02-10T14:15:57;33.47;;;18.17;;
36205;SDS011;22242;48.796;9.930;2023-02-10T14:18:27;32.97;;;17.27;;
36205;SDS011;22242;48.796;9.930;2023-02-10T14:20:58;29.40;;;16.50;;
36205;SDS011;22242;48.796;9.930;2023-02-10T14:23:29;31.55;;;16.75;;
36205;SDS011;22242;48.796;9.930;2023-02-10T14:25:58;34.03;;;17.35;;
36205;SDS011;22242;48.796;9.930;2023-02-10T14:28:29;30.48;;;16.65;;
36205;SDS011;22242;48.796;9.930;2023-02-10T14:31:00;35.88;;;17.02;;
36205;SDS011;22242;48.796;9.930;2023-02-10T14:33:34;39.10;;;19.13;;
36205;SDS011;22242;48.796;9.930;2023-02-10T14:36:03;33.85;;;17.48;;
36205;SDS011;22242;48.796;9.930;2023-02-10T14:38:33;40.67;;;18.85;;
36205;SDS011;22242;48.796;9.930;2023-02-10T14:41:01;36.55;;;17.25;;
36205;SDS011;22242;48.796;9.930;2023-02-10T14:43:29;34.60;;;17.73;;
36205;SDS011;22242;48.796;9.930;2023-02-10T14:46:00;37.60;;;17.98;;
36205;SDS011;22242;48.796;9.930;2023-02-10T14:48:28;34.92;;;17.38;;
36205;SDS011;22242;48.796;9.930;2023-02-10T14:51:02;39.75;;;19.23;;
36205;SDS011;22242;48.796;9.930;2023-02-10T14:53:32;35.13;;;17.58;;